Timeline UpdatesTrip UpdatesNews PostsPvt Posts♥♥Travel TipsAdmin PostsConv PostsFollowed PostsChat RequestsBlog PostsPNR Posts

Disclaimer
Search
 
 
Sat Nov 22, 2014 08:34:16 ISTHomeTrainsΣChainsAtlasPNRForumGalleryNewsFAQTripsMembersLoginFeedback
No Recent News for this Train
Other Trains in the News **new
Latest...
.
Sat May 05, 2012 (10:37PM)
⇐ Return Journey: Train# 54803

54804/Ahmedabad Jodhpur Passenger (UnReserved)

Time-Table HAS CHANGED.
Sep 04 2014 (10:57AM)
Change Departure Station:
Change Arrival Station:
Post a Train Travel TipPost a Train Travel Tip **new
Post a Comment/Question/Picture/VideoPost a Comment/Question/Picture/Video
Pantry/Catering
✕ NO Pantry Car
✕ NO Catering
RSA - Rake Sharing
3 different rounds (6 services) are run by the rakes of this train. 54803 Jodhpur (JU) - Ahemedabad (ADI) becomes 54806 for Ahmedabad - Ajmer (AII) which further goes to Jaipur (JP) as 54807. 54808 comes from Jaipur to Ajmer which further goes to Ahmedabad as 54805 and becomes...
Read more...
54804 from Ahmedabad to Jodhpur.
Rake/Coach Composition
Loco
WDM 2A ABR Shed.
News    PNR    Forum    Time-Table    Availability    Fare Chart    Map    Arr/Dep History    Trips    Gallery    ΣChains    X/O    Timeline    
Travel Time: 3h 30m    12 halts    Distance: 120 km    Avg Speed: 34 km/hr
Type: Passenger
Zone: NWR/North Western
Departs @ 16:50 (Avg 6m late)
Platform# ???
SMTWTFS
Banta Raghunathgarh/BGG 
Arrives @ 20:20 (Avg 15m late)
Platform# ???
SMTWTFS
Jodhpur Junction/JU 

12 halts. 13 intermediate Stations between Banta Raghunathgarh and Jodhpur Junction

Show ALL intermediate Stations  Show Old Time-Table

#TrkCodeStation NameX/OArrivesAvgDepartsAvgHaltPFDay#KmSpeedElevZoneAddress
1/==/ADIAhmedabad Junction (12)  -06:15+291-335.62551mWRAhmedabad, Gujarat
2/==/SBTSabarmati Junction (3)  06:28+606:30+62m--1-330.22952mWRAhmedabad, Gujarat
3|--|KHDBKhodiyar  06:52+1506:54+202m--1-319.72664mWRKhodiyar, Gujarat
4|--|KLLKalol (3)  07:08 07:19+1707:10 07:21+172m--1-308.85971mWRKalol, Gujarat
5|--|JULJhulasan (3)X  07:22 07:31+1807:24 07:33+202m--1-299.05677mWRMehsana, Gujarat
6|--|DNWDangarwaX  07:39 07:40+2107:41 07:42+242m--1-292.45883mWRJagudan, Gujarat
7|--|UMNAmbliyasan  07:48 07:50+2407:50 07:52+252m--1-284.63990mWRMehsana, Gujarat
8|--|JDNJagudanX  08:04+2308:06+342m--1-276.81790mWRKochva Road, Gujarat
9|--|MSHMahesana Junction (6)X  08:40+1608:50+1310m--1-267.07495mWRMehsana, Gujarat
10|--|BHUBhandu Motidau  08:59+1209:01+142m--1-255.97297mWRMahesana, Gujarat
11|--|UJAUnjha  09:10+1609:12+162m--1-245.163116mWRUnjha, Gujarat
12|--|KMLIKamli  09:19+1809:21+182m--1-237.863126mWRChhapi, Gujarat
13|--|SIDSiddhpur  09:27+2009:29+202m--1-231.442136mWRState Highway 41, Gujarat
14|--|DRWDharewada  09:37+2109:39+202m--1-225.957145mWRUnjha, Gujarat
15|--|CHPChhapi  09:47+2009:49+192m--1-218.259169mWRBanaskantha, Gujarat
16|--|UMUmardashi  09:57+1909:59+192m--1-210.421187mWRChitrasani, Gujarat
17|-=!PNUPalanpur Junction (5)XO  10:23+510:28+45m--1-202.045216mWRPalanpur, Gujarat
18!==!KRJDKarjodaXO  10:36+2010:37+211m--1-196.054234mNWRChhapi, Gujarat
19!==!CTTChitrasani  10:43+2210:44+221m--1-190.544225mNWRChitrasani, Gujarat
20!==!JTYJethiO  10:50+2310:52 10:51+242 1m--1-186.146212mNWRBANASKANTHA, Gujarat
21!==!IQGIqbal GadhXO  10:59+2411:00+271m--1-180.064209mNWRBanaskantha, Gujarat
22!==!SZASarotra Road  11:07+2811:08+371m--1-172.554216mNWRSarotra, Gujarat
23!==!SIMShri AmirgadhX  11:14+3911:15+461m--1-167.156229mNWRAmirgadh, Gujarat
24!==!MAAMavalXO  11:24+4611:25+561m--1-158.822245mNWRNational Highway 14, Rajasthan
25!==!ABRAbu Road (3)X  11:50+3612:15+3325m11-149.421264mNWRSirohi Dist, Rajasthan
26!==!MXOMorthala  12:24+4112:25+421m--1-146.344267mNWRNH 14, Rajasthan
27!==!KWIKivarli  12:33+4212:34+441m--1-140.443281mNWRShri Amirgadh, Rajasthan
28!==!BMNBhimana  12:45+4212:46+451m--1-132.657313mNWRAbu Road, Rajasthan
29!==!SRPJSwarupGanjO  12:55+4512:56+521m--1-124.026334mNWRSirohi Road, Rajasthan
30!==!BNSBanas  13:17 13:15+4213:18 13:16+461m--1-115.676347mNWRSirohi Road, Rajasthan
31!==!SOHSirohi Road (2)  13:29 13:24+4713:30 13:25+491m--1-105.553369mNWRPindwara, Rajasthan
32!=-|KVJKeshavganjX  13:42 13:34+4813:43 13:35+531m--1-97.660393mNWRJawai Bandh, Rajasthan
33|--|NANANanaX  14:34 13:44+5214:35 13:45+551m--1-88.641355mNWRNana, Rajasthan
34|--|KTRKothar  15:09 13:54+5315:10 13:55+561m--1-82.454346mNWRPali, Rajasthan
35|--|MOIMori Bera  15:17 14:02+5715:18 14:03+1:011m--1-76.163323mNWRNana, Rajasthan
36|--|JWBJawai BandhX  15:27 14:12+1:0015:28 14:13+1:051m--1-66.745292mNWRPali, Rajasthan
37|--|BRLYBiroliyaX  15:37 14:24+1:0215:38 14:25+1:061m--1-58.548294mNWRBiroliya Rd, Rajasthan
38|--|FAFalna (2)  15:47 14:35+5815:50 14:40+563 5m--1-50.561282mNWRFalna, Rajasthan
39|--|KZQKhimel  15:57 14:48+1:0415:58 14:49+1:061m--1-42.455277mNWRJawai Bandh, Rajasthan
40|--|RANIRaniXO  16:05 14:56+1:0716:06 14:57+1:091m--1-36.16280mNWRRania, Rajasthan
41|--|BGPRBhagwanpura  16:15+216:16+31m--1-28.057276mNWRSomesar, Rajasthan
42|--|JALJawali  16:24+316:25+31m--1-20.463270mNWRRania, Rajasthan
43|--|SOSSomesar  16:33+316:34+41m--1-12.052269mNWRSomesar, Rajasthan
44|--|BWABhinwaliyaX  16:41+416:42+41m--1-6.051268mNWRPindwara, Rajasthan
45|--|BGGBanta Raghunathgarh»  16:49+516:50+61m--10.023266mNWRSomesar, Rajasthan
46|--|AUWAAuwa (2)X  16:58 17:09-416:59 17:10+21m--17.335265mNWRSomesar, Rajasthan
47|--|MJMarwar Junction (4)  17:25+817:35+1010m--116.063267mNWRMarwar Junction, Rajasthan
48|--|RKZRajkiawas  17:44 17:45+1117:46+122 1m--126.562245mNWRMarwar, Rajasthan
49|--|BOMBomadraX  17:54 17:55+1217:56+142 1m--135.761234mNWRPali Marwar, Rajasthan
50|--|PMYPali Marwar (2)  18:07+1218:09+132m--146.957221mNWRPali, Rajasthan
51|--|KAIKairla  18:25+1218:27 18:26+172 1m--162.061213mNWRPali, Rajasthan
52|--|RTRohat  18:38 18:39+1618:40+192 1m--175.260183mNWRSH 64, Rajasthan
53|--|LUNILuni Junction (3)  18:53+1718:56+213m--188.164180mNWRLuni, Rajasthan
54|==|HWTHanwantX  19:02+2819:04+282m--194.543185mNWRBasni, Rajasthan
55|==|SZSalawasX  19:17+2619:19+282m--1103.971193mNWRLuni, Rajasthan
56|==|BANEBasniXO  19:28 19:27+3019:30 19:29+302m--1113.37219mNWRJodhpur, Rajasthan
57|==|BGKTBhagat Ki Kothi (3)  20:03 19:57+1220:05 19:58+182 1m--1116.410229mNWRJodhpur, Rajasthan
58|=-|JUJodhpur Junction (5)•  20:35 20:20+15---1119.9-241mNWRJodhpur, Rajasthan
Scroll to Top
Scroll to Bottom